首页
METAR-TAF:

METAR-TAF

机场 :

Shawano, 威斯康辛州, 美国

纬度: 44-47-14N, 经度: 088-33-36W, 海拔: 248米

当前天气观测

该预报发布于16分钟前的14:55 UTC
风速3节,风向
温度 22°C
湿度 94%
气压 1008 hPa
能見度: 11.3公里
散云层高于400英尺
散云层高于1400英尺
多云层高于4600英尺
小毛毛雨

METAR: KEZS 221455Z AUTO 19003KT 7SM -DZ SCT004 SCT014 BKN046 22/21 A2978 RMK AO2 T02180210

时间: 10:11 (15:11 UTC)


TAF: 丢失

超过4000个机场的气象观测和天气预报(METAR&TAF报告)。

可查询的气象台以黄色和红色小点在地图上表示。

将鼠标移到小点上方,可查看气象台名称。

然后点击查看天气观测和预报。

如需切换地图:点击带黑十字的绿色按钮放大地图;点击带横线的绿色按钮缩小地图;或者点击绿色箭头查看邻近地区的地图。


METAR-TAF: